Hanzhong, China
Current Conditions -  °F | °C
As of 4:00 PM on Thursday 23 Oct 2014 (Local Time) from ZLXY Reporting Station
Haze Haze  
Wind Chill: 73°   Ceiling: Unl
Heat Index: 73°   Visibility: 2.5mi
Dew Point: 50°   Wind: 4mph
Humidity: 44%   Direction: NA
Pressure: 29.97"   Gusts: NA
Location:  33.13°N, 107.03°E
Report Text: ZLXY 230800Z VRB02MPS 4000 HZ NSC 23/10 Q1015 NOSIG
Loading
Personal Weather Stations






























Interactive Weather Map New forecast layout! Learn more

10-Day Weather Forecast

Advertisements
Track Severe Weather on mobile